createdAt,value
2022-10-11T00:03:37.248Z,77.98
2022-10-11T00:08:39.260Z,77.79
2022-10-11T00:13:44.229Z,77.93
2022-10-11T00:18:47.763Z,78.14
2022-10-11T00:23:52.810Z,78.43
2022-10-11T00:28:57.676Z,78.51
2022-10-11T00:34:23.387Z,78.76
2022-10-11T00:39:25.300Z,78.66
2022-10-11T00:44:36.346Z,78.53
2022-10-11T00:49:47.738Z,78.94
2022-10-11T00:54:51.804Z,78.79
2022-10-11T00:59:57.394Z,79.13
2022-10-11T01:05:29.514Z,79.03
2022-10-11T01:10:38.225Z,79.27
2022-10-11T01:16:07.221Z,79.24
2022-10-11T01:21:41.009Z,79.51
2022-10-11T01:27:15.630Z,79.67
2022-10-11T01:33:00.458Z,79.44
2022-10-11T01:38:35.416Z,79.69
2022-10-11T01:43:41.951Z,79.50
2022-10-11T01:49:00.270Z,79.79
2022-10-11T01:55:07.547Z,79.58
2022-10-11T02:00:19.141Z,79.50
2022-10-11T02:06:06.343Z,79.89
2022-10-11T02:11:24.973Z,79.86
2022-10-11T02:16:33.090Z,79.73
2022-10-11T02:21:44.092Z,79.99
2022-10-11T02:26:54.674Z,79.84
2022-10-11T02:32:07.021Z,79.56
2022-10-11T02:37:27.619Z,80.28
2022-10-11T02:42:39.863Z,80.13
2022-10-11T02:47:48.350Z,79.92
2022-10-11T02:52:54.081Z,80.18
2022-10-11T02:57:58.272Z,80.20
2022-10-11T03:07:25.691Z,80.50
2022-10-11T03:12:35.414Z,81.16
2022-10-11T03:17:42.971Z,81.55
2022-10-11T03:22:51.305Z,81.09
2022-10-11T03:27:55.558Z,81.24
2022-10-11T03:33:01.461Z,81.26
2022-10-11T03:38:08.222Z,81.37
2022-10-11T03:43:21.612Z,81.16
2022-10-11T03:48:27.307Z,81.20
2022-10-11T03:53:38.626Z,81.34
2022-10-11T03:58:44.607Z,81.21
2022-10-11T04:03:48.660Z,81.28
2022-10-11T04:08:52.998Z,81.41
2022-10-11T04:14:00.217Z,81.52
2022-10-11T04:19:06.834Z,81.40
2022-10-11T04:24:12.317Z,81.74
2022-10-11T04:29:26.679Z,81.47
2022-10-11T04:34:33.973Z,81.38
2022-10-11T04:39:40.914Z,81.60
2022-10-11T04:44:53.568Z,81.50
2022-10-11T04:50:07.132Z,81.46
2022-10-11T04:55:13.114Z,81.41
2022-10-11T05:00:19.915Z,81.44
2022-10-11T05:05:34.712Z,81.23
2022-10-11T05:10:42.520Z,81.29
2022-10-11T05:21:28.798Z,81.14
2022-10-11T05:26:37.355Z,81.22
2022-10-11T05:31:41.994Z,80.98
2022-10-11T05:36:49.655Z,81.00
2022-10-11T05:42:01.690Z,81.16
2022-10-11T05:47:06.737Z,81.26
2022-10-11T05:52:37.680Z,81.37
2022-10-11T05:57:43.362Z,81.28
2022-10-11T06:02:55.749Z,81.30
2022-10-11T06:08:04.420Z,81.34
2022-10-11T06:13:10.573Z,81.21
2022-10-11T06:18:16.667Z,81.20
2022-10-11T06:23:22.421Z,81.18
2022-10-11T06:28:30.043Z,80.63
2022-10-11T06:33:36.757Z,80.32
2022-10-11T06:38:44.931Z,80.20
2022-10-11T06:43:54.654Z,79.76
2022-10-11T06:48:59.002Z,79.59
2022-10-11T06:54:03.160Z,79.40
2022-10-11T06:59:09.748Z,79.16
2022-10-11T07:04:13.555Z,78.87
2022-10-11T07:09:17.108Z,78.66
2022-10-11T07:14:27.084Z,78.43
2022-10-11T07:19:31.520Z,77.69
2022-10-11T07:24:39.359Z,77.08
2022-10-11T07:29:45.164Z,75.90
2022-10-11T07:34:53.814Z,75.47
2022-10-11T07:39:58.334Z,74.87
2022-10-11T07:45:04.771Z,74.04
2022-10-11T07:50:11.602Z,72.49
2022-10-11T07:55:20.437Z,71.57
2022-10-11T08:00:29.435Z,70.84
2022-10-11T08:05:43.161Z,70.53
2022-10-11T08:10:49.211Z,70.33
2022-10-11T08:15:56.030Z,70.00
2022-10-11T08:21:07.852Z,70.46
2022-10-11T08:26:13.351Z,68.65
2022-10-11T08:31:27.395Z,70.40
2022-10-11T08:36:31.610Z,70.17
2022-10-11T08:41:46.657Z,69.26
2022-10-11T08:47:00.748Z,69.88
2022-10-11T08:52:25.134Z,69.43
2022-10-11T08:57:34.560Z,70.35
2022-10-11T09:03:20.997Z,69.57
2022-10-11T09:09:09.849Z,70.09
2022-10-11T09:14:41.341Z,70.35
2022-10-11T09:20:21.284Z,70.58
2022-10-11T09:25:52.627Z,70.92
2022-10-11T09:31:01.077Z,70.86
2022-10-11T09:36:23.718Z,70.21
2022-10-11T09:41:54.902Z,70.48
2022-10-11T09:47:09.818Z,70.20
2022-10-11T09:52:24.841Z,70.15
2022-10-11T09:57:46.640Z,69.02
2022-10-11T10:08:31.720Z,69.21
2022-10-11T10:13:57.462Z,68.51
2022-10-11T10:19:22.036Z,69.04
2022-10-11T10:24:50.809Z,68.55
2022-10-11T10:30:26.667Z,68.30
2022-10-11T10:36:03.274Z,68.85
2022-10-11T10:41:16.094Z,69.33
2022-10-11T10:46:46.824Z,69.16
2022-10-11T10:52:44.198Z,69.13
2022-10-11T11:04:00.839Z,68.55
2022-10-11T11:09:49.489Z,68.79
2022-10-11T11:15:08.466Z,68.13
2022-10-11T11:20:48.538Z,67.26
2022-10-11T11:26:09.789Z,66.46
2022-10-11T11:31:55.308Z,65.19
2022-10-11T11:37:05.400Z,65.67
2022-10-11T11:42:16.062Z,65.14
2022-10-11T11:47:44.949Z,65.01
2022-10-11T11:52:56.865Z,65.23
2022-10-11T11:58:48.231Z,63.54
2022-10-11T12:04:05.359Z,63.68
2022-10-11T12:14:45.949Z,63.69
2022-10-11T12:20:13.302Z,63.55
2022-10-11T12:25:41.707Z,64.34
2022-10-11T12:30:56.519Z,65.90
2022-10-11T12:36:08.752Z,67.03
2022-10-11T12:41:21.335Z,67.81
2022-10-11T12:46:42.301Z,66.65
2022-10-11T12:52:27.161Z,68.01
2022-10-11T12:57:49.241Z,67.96
2022-10-11T13:02:51.563Z,68.21
2022-10-11T13:08:11.272Z,68.22
2022-10-11T13:13:34.247Z,68.20
2022-10-11T13:18:38.838Z,67.51
2022-10-11T13:23:46.164Z,67.81
2022-10-11T13:29:04.826Z,68.30
2022-10-11T13:34:25.745Z,68.69
2022-10-11T13:39:42.289Z,69.01
2022-10-11T13:44:49.881Z,69.34
2022-10-11T13:55:57.177Z,69.03
2022-10-11T14:01:06.750Z,69.14
2022-10-11T14:06:13.787Z,68.99
2022-10-11T14:11:48.956Z,69.52
2022-10-11T14:22:31.038Z,69.88
2022-10-11T14:27:38.479Z,69.88
2022-10-11T14:32:43.297Z,70.28
2022-10-11T14:37:49.430Z,70.48
2022-10-11T14:42:59.023Z,70.49
2022-10-11T14:48:07.272Z,70.60
2022-10-11T14:53:13.147Z,70.28
2022-10-11T14:58:46.604Z,70.56
2022-10-11T15:03:51.409Z,71.00
2022-10-11T15:08:56.359Z,71.00
2022-10-11T15:14:11.418Z,71.58
2022-10-11T15:19:21.297Z,70.93
2022-10-11T15:24:24.658Z,71.51
2022-10-11T15:29:30.033Z,72.10
2022-10-11T15:34:35.097Z,72.04
2022-10-11T15:39:41.063Z,72.16
2022-10-11T15:44:49.220Z,72.20
2022-10-11T15:49:55.257Z,72.00
2022-10-11T15:55:01.438Z,72.15
2022-10-11T16:00:08.370Z,72.67
2022-10-11T16:05:42.821Z,72.88
2022-10-11T16:10:55.967Z,72.78
2022-10-11T16:16:10.677Z,72.48
2022-10-11T16:21:22.415Z,73.02
2022-10-11T16:26:31.586Z,73.45
2022-10-11T16:31:35.672Z,73.57
2022-10-11T16:36:46.582Z,73.77
2022-10-11T16:41:54.875Z,73.43
2022-10-11T16:47:03.728Z,73.80
2022-10-11T16:52:11.092Z,73.53
2022-10-11T16:57:23.610Z,74.07
2022-10-11T17:02:32.754Z,74.01
2022-10-11T17:07:37.673Z,73.99
2022-10-11T17:12:40.877Z,74.16
2022-10-11T17:17:45.618Z,73.77
2022-10-11T17:22:56.249Z,73.66
2022-10-11T17:28:02.977Z,73.77
2022-10-11T17:33:06.653Z,74.17
2022-10-11T17:38:13.890Z,74.35
2022-10-11T17:43:20.474Z,74.56
2022-10-11T17:48:26.990Z,74.83
2022-10-11T17:53:35.901Z,74.82
2022-10-11T17:58:49.453Z,75.52
2022-10-11T18:04:04.391Z,75.79
2022-10-11T18:09:09.457Z,75.78
2022-10-11T18:14:22.091Z,76.05
2022-10-11T18:19:29.229Z,76.22
2022-10-11T18:24:36.651Z,76.26
2022-10-11T18:29:43.516Z,76.03
2022-10-11T18:34:48.365Z,76.20
2022-10-11T18:39:54.195Z,76.15
2022-10-11T18:44:57.327Z,76.33
2022-10-11T18:50:10.749Z,76.42
2022-10-11T19:07:26.766Z,76.75
2022-10-11T19:12:31.184Z,76.46
2022-10-11T19:17:48.746Z,76.58
2022-10-11T19:22:59.244Z,76.97
2022-10-11T19:28:05.399Z,77.10
2022-10-11T19:33:08.018Z,77.10
2022-10-11T19:38:12.790Z,77.11
2022-10-11T19:43:20.166Z,77.01
2022-10-11T19:48:51.810Z,76.21
2022-10-11T19:54:04.332Z,75.78
2022-10-11T19:59:09.750Z,75.60
2022-10-11T20:04:39.495Z,74.94
2022-10-11T20:09:47.585Z,74.37
2022-10-11T20:15:04.384Z,73.39
2022-10-11T20:20:16.986Z,72.49
2022-10-11T20:25:23.764Z,72.49
2022-10-11T20:30:29.395Z,72.57
2022-10-11T20:35:32.608Z,72.89
2022-10-11T20:40:35.346Z,73.10
2022-10-11T20:45:40.346Z,73.23
2022-10-11T20:50:46.390Z,73.15
2022-10-11T20:55:57.585Z,73.67
2022-10-11T21:01:07.833Z,73.48
2022-10-11T21:06:17.456Z,73.82
2022-10-11T21:11:29.036Z,73.60
2022-10-11T21:16:43.383Z,73.89
2022-10-11T21:21:53.714Z,73.92
2022-10-11T21:27:01.019Z,73.94
2022-10-11T21:32:05.759Z,74.23
2022-10-11T21:37:09.278Z,74.30
2022-10-11T21:42:16.820Z,74.29
2022-10-11T21:47:20.016Z,73.99
2022-10-11T21:52:27.741Z,73.59
2022-10-11T21:57:32.757Z,73.44
2022-10-11T22:02:40.187Z,72.96
2022-10-11T22:07:45.668Z,72.77
2022-10-11T22:24:26.638Z,72.97
2022-10-11T22:30:43.575Z,73.04
2022-10-11T22:46:38.028Z,73.49
2022-10-11T22:57:42.576Z,74.59
2022-10-11T23:02:47.164Z,75.11
2022-10-11T23:07:54.661Z,75.40
2022-10-11T23:12:59.691Z,75.49
2022-10-11T23:18:08.695Z,75.87
2022-10-11T23:23:21.618Z,75.75
2022-10-11T23:28:31.072Z,75.86
2022-10-11T23:33:33.857Z,75.56
2022-10-11T23:38:46.268Z,75.74
2022-10-11T23:44:24.966Z,75.69
2022-10-11T23:49:29.526Z,75.55
2022-10-11T23:54:41.957Z,75.43
2022-10-11T23:59:49.682Z,75.38
